ADDS METAR Data INFO
IDs: Format: Raw Decoded Include TAF

Data at: 0940 UTC 25 Jun 2018

KAMN 250935Z AUTO 01003KT 2SM BR CLR 11/11 A3018 RMK AO2 VIS 1V5 T01080108
KAMN 250918Z AUTO 00000KT 5SM BR CLR 11/11 A3018 RMK AO2 T01110111
KAMN 250857Z AUTO 00000KT 4SM BR CLR 11/11 A3017 RMK AO2 T01130113
KAMN 250837Z AUTO 00000KT 7SM CLR 12/12 A3017 RMK AO2 T01150115
KAMN 250817Z AUTO 00000KT 2SM BR CLR 12/12 A3016 RMK AO2 T01150115
KAMN 250757Z AUTO 00000KT 5SM BR CLR 12/12 A3016 RMK AO2 T01170117
KAMN 250737Z AUTO 00000KT 10SM CLR 13/13 A3016 RMK AO2 T01290129
KAMN 250717Z AUTO 00000KT 10SM CLR 13/13 A3015 RMK AO2 T01290128
KAMN 250657Z AUTO 00000KT 10SM CLR 14/13 A3015 RMK AO2 T01350132
KAMN 250637Z AUTO 00000KT 10SM CLR 14/13 A3014 RMK AO2 T01350131
KAMN 250617Z AUTO 31003KT 10SM CLR 14/13 A3014 RMK AO2 T01400134
KAMN 250557Z AUTO 05003KT 10SM SCT025 15/14 A3015 RMK AO2 T01450138 10235 20145 402380145
KAMN 250535Z AUTO 33003KT 10SM BKN025 15/14 A3015 RMK AO2 T01480142
KAMN 250515Z AUTO 28003KT 10SM BKN027 15/15 A3014 RMK AO2 T01500145
KAMN 250455Z AUTO 29003KT 10SM BKN027 15/15 A3014 RMK AO2 T01510146
KAMN 250436Z AUTO 24003KT 10SM SCT027 15/14 A3013 RMK AO2 T01490143
KAMN 250416Z AUTO 04005KT 10SM CLR 15/15 A3012 RMK AO2 T01510145
KAMN 250356Z AUTO 02006KT 10SM CLR 16/15 A3011 RMK AO2 T01570147
KAMN 250335Z AUTO 03007KT 10SM CLR 16/15 A3011 RMK AO2 T01590149
KAMN 250315Z AUTO 03006KT 10SM CLR 16/15 A3011 RMK AO2 T01620151
KAMN 250255Z AUTO 02007KT 10SM SCT080 17/16 A3010 RMK AO2 T01660155
KAMN 250235Z AUTO 02005KT 10SM SCT080 17/16 A3009 RMK AO2 T01700160
KAMN 250215Z AUTO 03006KT 10SM SCT049 SCT090 17/16 A3008 RMK AO2 T01700161
KAMN 250155Z AUTO 06004KT 10SM SCT049 SCT090 18/16 A3008 RMK AO2 T01790164
KAMN 250135Z AUTO 05005KT 10SM SCT090 19/17 A3006 RMK AO2 T01850167
KAMN 250115Z AUTO 07008KT 10SM BKN090 20/17 A3005 RMK AO2 T01950174
KAMN 250055Z AUTO 07005KT 10SM SCT042 SCT100 20/18 A3005 RMK AO2 T02040176
KAMN 250035Z AUTO 09004KT 10SM BKN042 OVC100 22/18 A3003 RMK AO2 T02180175
KAMN 250018Z AUTO 08005KT 10SM SCT042 OVC100 23/18 A3003 RMK AO2 T02250175
KAMN 242358Z AUTO 07006KT 10SM BKN100 24/17 A3002 RMK AO2 T02350171 10238 20192
KAMN 242338Z AUTO 08004KT 10SM SCT100 24/17 A3002 RMK AO2 T02350167
KAMN 242318Z AUTO 07006KT 10SM SCT041 24/17 A3001 RMK AO2 T02360171
KAMN 242258Z AUTO 03004KT 10SM CLR 24/16 A3002 RMK AO2 T02360164
KAMN 242238Z AUTO 07005KT 10SM CLR 24/16 A3002 RMK AO2 T02360164
KAMN 242218Z AUTO 10003KT 10SM SCT039 24/16 A3002 RMK AO2 T02360158
KAMN 242158Z AUTO 07003KT 10SM SCT039 24/16 A3003 RMK AO2 T02360160
KAMN 242138Z AUTO 06003KT 10SM SCT037 24/16 A3003 RMK AO2 T02360157
KAMN 242118Z AUTO 07003KT 10SM CLR 24/15 A3002 RMK AO2 T02350152
KAMN 242058Z AUTO 06007KT 10SM SCT036 24/15 A3002 RMK AO2 T02350154
KAMN 242037Z AUTO 03006KT 10SM BKN036 23/16 A3001 RMK AO2 T02270162
KAMN 242017Z AUTO 02005KT 10SM BKN034 BKN042 23/16 A3002 RMK AO2 T02310162
KAMN 241957Z AUTO 04007KT 10SM BKN032 23/16 A3001 RMK AO2 T02290163
KAMN 241937Z AUTO 08005KT 10SM SCT032 23/17 A2999 RMK AO2 T02250165
KAMN 241917Z AUTO 04008KT 10SM SCT027 BKN035 22/16 A2999 RMK AO2 T02170162
KAMN 241857Z AUTO 02007KT 10SM SCT025 SCT029 BKN034 22/17 A2999 RMK AO2 T02160173
KAMN 241837Z AUTO 06005KT 10SM SCT017 BKN023 BKN030 21/18 A2999 RMK AO2 T02100175
KAMN 241817Z AUTO 34006KT 10SM SCT010 BKN033 OVC080 20/18 A2999 RMK AO2 T02010184
KAMN 241757Z AUTO 35004KT 10SM SCT010 BKN048 OVC070 19/18 A2997 RMK AO2 T01890181 10189 20170
KAMN 241737Z AUTO 35004KT 10SM BKN010 BKN016 OVC048 18/18 A2997 RMK AO2 T01840178
KAMN 241717Z AUTO 05005KT 10SM SCT009 BKN017 OVC046 18/18 A2997 RMK AO2 T01840176
KAMN 241657Z AUTO 06006KT 10SM SCT009 SCT025 OVC046 18/18 A2996 RMK AO2 T01830178
KAMN 241636Z AUTO 05007KT 7SM SCT007 BKN025 OVC042 18/18 A2996 RMK AO2 T01810179
KAMN 241616Z AUTO 04003KT 10SM -DZ SCT009 BKN016 OVC028 18/18 A2996 RMK AO2 T01800179
KAMN 241556Z AUTO 02004KT 7SM SCT009 BKN015 OVC021 18/18 A2995 RMK AO2 T01760176
KAMN 241536Z AUTO 01006KT 3SM RA BKN009 OVC015 17/17 A2995 RMK AO2 T01720172
KAMN 241516Z AUTO 01007KT 350V050 5SM +RA BKN009 BKN013 OVC021 17/17 A2994 RMK AO2 T01720172
KAMN 241456Z AUTO 01006KT 3SM DZ BKN007 OVC011 17/17 A2992 RMK AO2 T01710171
KAMN 241436Z AUTO 01007KT 350V070 2 1/2SM +RA BKN007 OVC013 17/17 A2991 RMK AO2 VIS 1 1/2V5 T01710171
KAMN 241416Z AUTO 01009KT 2 1/2SM -RA BKN004 OVC009 17/17 A2990 RMK AO2 T01710171
KAMN 241356Z AUTO 36008KT 1 3/4SM RA OVC004 18/18 A2989 RMK AO2 T01750175
KAMN 241336Z AUTO 05007KT 1 3/4SM -RA OVC003 18/18 A2988 RMK AO2 T01750175
KAMN 241316Z AUTO 01008G16KT 1 1/4SM DZ OVC003 18/18 A2986 RMK AO2 T01790179
KAMN 241255Z AUTO 36007KT 290V010 1 3/4SM BR OVC005 18/18 A2985 RMK AO2 T01760176
KAMN 241235Z AUTO 35005KT 2 1/2SM BR OVC005 18/18 A2985 RMK AO2 T01770176
KAMN 241215Z AUTO 31007KT 280V350 4SM BR OVC005 18/17 A2984 RMK AO2 T01750173
KAMN 241155Z AUTO 29006KT 3SM BR OVC007 17/17 A2984 RMK AO2 T01720171 10179 20163
KAMN 241135Z AUTO 27005KT 3SM BR OVC007 17/17 A2984 RMK AO2 T01720172
KAMN 241115Z AUTO 29004KT 2 1/2SM BR BKN005 OVC009 17/17 A2983 RMK AO2 T01690169
KAMN 241055Z AUTO 24003KT 2 1/2SM BR OVC005 17/17 A2983 RMK AO2 T01660166
KAMN 241035Z AUTO 00000KT 2 1/2SM BR OVC005 17/17 A2982 RMK AO2 T01650165
KAMN 241015Z AUTO 00000KT 3SM BR BKN005 OVC032 16/16 A2982 RMK AO2 T01630163
KAMN 240955Z AUTO 28004KT 5SM BR OVC005 17/17 A2981 RMK AO2 T01650165
KAMN 240935Z AUTO 23003KT 5SM BR BKN005 BKN032 OVC070 17/17 A2981 RMK AO2 T01650165
KAMN 240920Z AUTO 21003KT 5SM BR SCT005 OVC070 17/17 A2981 RMK AO2 T01650165
KAMN 240859Z AUTO 30004KT 5SM BR SCT005 SCT031 OVC070 17/17 A2980 RMK AO2 T01650165
KAMN 240839Z AUTO 00000KT 7SM SCT005 BKN030 OVC041 17/17 A2980 RMK AO2 T01660165
KAMN 240819Z AUTO 22003KT 7SM BKN030 OVC039 17/17 A2980 RMK AO2 T01660165
KAMN 240759Z AUTO 22005KT 7SM SCT011 BKN030 OVC037 17/17 A2980 RMK AO2 T01680168
KAMN 240739Z AUTO 21004KT 7SM SCT022 BKN030 17/17 A2980 RMK AO2 T01700170
KAMN 240719Z AUTO 21004KT 5SM BR CLR 17/17 A2979 RMK AO2 T01700170
KAMN 240659Z AUTO 12004KT 7SM SCT065 17/17 A2978 RMK AO2 T01740174
KAMN 240639Z AUTO 12004KT 5SM BR SCT022 BKN065 18/18 A2979 RMK AO2 T01760176
KAMN 240619Z AUTO 14004KT 5SM BR BKN022 OVC065 18/18 A2980 RMK AO2 T01770176
KAMN 240559Z AUTO 00000KT 7SM BKN022 BKN028 OVC065 18/18 A2980 RMK AO2 T01790177 10207 20179 402160162
KAMN 240539Z AUTO 00000KT 7SM SCT028 OVC065 18/18 A2979 RMK AO2 T01800177
KAMN 240518Z AUTO 00000KT 7SM OVC065 18/18 A2979 RMK AO2 T01800176
KAMN 240458Z AUTO 19004KT 7SM OVC065 18/18 A2979 RMK AO2 T01810177
KAMN 240438Z AUTO 19003KT 10SM OVC050 18/18 A2979 RMK AO2 T01800176
KAMN 240417Z AUTO 00000KT 10SM OVC048 18/18 A2979 RMK AO2 T01810175
KAMN 240357Z AUTO 18003KT 10SM SCT041 BKN048 OVC070 19/18 A2978 RMK AO2 T01850176
KAMN 240337Z AUTO 00000KT 10SM OVC060 19/18 A2979 RMK AO2 T01850176
KAMN 240317Z AUTO 20003KT 10SM OVC060 19/18 A2978 RMK AO2 T01870180
KAMN 240257Z AUTO 21003KT 10SM SCT031 OVC060 19/18 A2978 RMK AO2 T01910182
KAMN 240237Z AUTO 21004KT 10SM SCT019 BKN031 OVC060 19/18 A2978 RMK AO2 T01920183
KAMN 240216Z AUTO 21003KT 10SM SCT029 OVC060 19/19 A2978 RMK AO2 T01920186
KAMN 240156Z AUTO 20007KT 10SM OVC070 20/19 A2976 RMK AO2 T01950187
KAMN 240136Z AUTO 20009KT 10SM OVC070 20/19 A2975 RMK AO2 T02000185
KAMN 240116Z AUTO 00000KT 10SM OVC070 20/19 A2974 RMK AO2 T02020185
KAMN 240056Z AUTO 00000KT 10SM SCT016 OVC070 20/19 A2974 RMK AO2 T02030186
KAMN 240036Z AUTO 27007KT 10SM BKN016 OVC070 20/19 A2974 RMK AO2 T02040185
KAMN 240016Z AUTO 27008KT 10SM SCT018 OVC070 21/18 A2974 RMK AO2 T02060182
KAMN 232356Z AUTO 26005KT 10SM SCT018 OVC070 21/18 A2975 RMK AO2 T02090181 10216 20200
KAMN 232336Z AUTO 25006KT 10SM OVC020 21/18 A2975 RMK AO2 T02130182
KAMN 232316Z AUTO 24003KT 10SM SCT014 BKN022 OVC070 22/19 A2975 RMK AO2 T02150187
KAMN 232255Z AUTO 24003KT 10SM SCT014 SCT029 BKN049 21/19 A2975 RMK AO2 T02140190
KAMN 232235Z AUTO 25004KT 10SM SCT043 BKN049 21/19 A2975 RMK AO2 T02120187
KAMN 232218Z AUTO 25005KT 10SM OVC046 21/19 A2975 RMK AO2 T02120187
KAMN 232158Z AUTO 28008KT 10SM SCT015 SCT029 OVC041 21/18 A2975 RMK AO2 T02090184